Time;durP1;ratioP1;P1;durP2;ratioP2;P2;SDS_P1;SDS_P2;PMS_P1;PMS_P2;Temp;Humidity;BMP_temperature;BMP_pressure;BME280_temperature;BME280_humidity;BME280_pressure;Samples;Min_cycle;Max_cycle;Signal;HPM_P1;HPM_P2
2022/10/31 00:00:32;;;;;;;17.02;11.35;;;;;;;12.34;100.00;101890.56;5234435;28;20053;-65
2022/10/31 00:03:04;;;;;;;15.90;10.82;;;;;;;12.40;100.00;101893.78;5237514;28;20094;-65
2022/10/31 00:05:35;;;;;;;15.25;11.40;;;;;;;12.29;100.00;101890.03;5234193;28;20036;-65
2022/10/31 00:08:06;;;;;;;15.98;11.15;;;;;;;12.26;100.00;101890.22;5236902;28;20100;-64
2022/10/31 00:10:39;;;;;;;15.70;11.13;;;;;;;12.25;100.00;101895.66;5247665;28;20024;-64
2022/10/31 00:13:12;;;;;;;16.70;11.60;;;;;;;12.25;100.00;101895.66;5246391;28;20077;-65
2022/10/31 00:15:44;;;;;;;16.08;11.43;;;;;;;12.20;100.00;101895.97;5247445;28;20300;-65
2022/10/31 00:18:15;;;;;;;19.83;12.23;;;;;;;12.16;100.00;101894.47;5242017;28;20037;-64
2022/10/31 00:20:46;;;;;;;19.55;11.93;;;;;;;12.21;100.00;101897.69;5244675;28;20486;-65
2022/10/31 00:23:17;;;;;;;16.60;11.40;;;;;;;12.19;100.00;101888.06;5240013;28;20483;-64
2022/10/31 00:25:49;;;;;;;19.45;11.88;;;;;;;12.15;100.00;101890.06;5251377;28;20454;-65
2022/10/31 00:28:20;;;;;;;16.55;11.60;;;;;;;12.13;100.00;101905.38;5248667;28;20184;-64
2022/10/31 00:30:51;;;;;;;19.75;11.32;;;;;;;12.15;100.00;101900.78;5248697;28;20043;-65
2022/10/31 00:33:22;;;;;;;17.75;11.65;;;;;;;12.12;100.00;101895.66;5250290;28;20490;-65
2022/10/31 00:35:54;;;;;;;16.67;11.85;;;;;;;12.07;100.00;101892.41;5248680;28;20033;-65
2022/10/31 00:38:25;;;;;;;17.35;12.23;;;;;;;12.09;100.00;101890.47;5243603;28;20025;-65
2022/10/31 00:40:57;;;;;;;16.70;12.02;;;;;;;11.94;100.00;101887.00;5250104;28;20035;-64
2022/10/31 00:43:28;;;;;;;17.10;12.15;;;;;;;11.96;100.00;101877.91;5249564;28;20037;-64
2022/10/31 00:45:59;;;;;;;19.88;12.05;;;;;;;12.01;100.00;101874.09;5243393;28;20044;-64
2022/10/31 00:48:30;;;;;;;17.38;11.75;;;;;;;12.01;100.00;101876.78;5238688;28;20025;-65
2022/10/31 00:51:02;;;;;;;16.05;11.50;;;;;;;12.01;100.00;101884.78;5241364;28;20067;-64
2022/10/31 00:53:33;;;;;;;17.83;12.13;;;;;;;11.99;100.00;101884.88;5242382;28;20067;-64
2022/10/31 00:56:05;;;;;;;14.68;11.45;;;;;;;11.90;100.00;101880.13;5240174;28;20033;-64
2022/10/31 00:58:37;;;;;;;19.63;12.18;;;;;;;11.92;100.00;101881.75;5245510;28;20029;-64
2022/10/31 01:01:08;;;;;;;18.33;12.00;;;;;;;11.98;100.00;101884.97;5241899;28;20124;-65
2022/10/31 01:03:39;;;;;;;15.93;11.02;;;;;;;11.86;100.00;101882.13;5236530;28;20043;-64
2022/10/31 01:06:12;;;;;;;15.98;11.65;;;;;;;11.90;100.00;101889.00;5244729;28;20033;-65
2022/10/31 01:08:44;;;;;;;19.42;12.80;;;;;;;11.96;100.00;101877.91;5234657;28;20052;-64
2022/10/31 01:11:18;;;;;;;17.70;11.95;;;;;;;11.95;100.00;101870.84;5233562;28;20028;-64
2022/10/31 01:13:52;;;;;;;18.35;13.02;;;;;;;11.81;100.00;101870.00;5243352;28;20037;-65
2022/10/31 01:16:25;;;;;;;20.70;12.52;;;;;;;11.88;100.00;101849.94;5242529;28;20199;-64
2022/10/31 01:18:57;;;;;;;18.80;13.25;;;;;;;11.75;100.00;101853.44;5243725;28;20036;-64
2022/10/31 01:21:29;;;;;;;17.98;12.00;;;;;;;11.80;100.00;101863.81;5248099;28;20037;-64
2022/10/31 01:24:03;;;;;;;17.48;12.07;;;;;;;11.69;100.00;101861.81;5247789;28;21216;-65
2022/10/31 01:26:34;;;;;;;15.18;11.48;;;;;;;11.81;100.00;101861.97;5248964;28;20074;-64
2022/10/31 01:29:07;;;;;;;17.98;11.75;;;;;;;11.77;100.00;101862.19;5248716;28;20577;-64
2022/10/31 01:31:39;;;;;;;18.50;12.63;;;;;;;11.65;100.00;101871.00;5247343;28;20034;-64
2022/10/31 01:34:14;;;;;;;16.45;11.63;;;;;;;11.66;100.00;101870.06;5245254;28;20098;-66
2022/10/31 01:36:50;;;;;;;16.85;12.00;;;;;;;11.72;100.00;101883.03;5226760;28;20055;-64
2022/10/31 01:39:22;;;;;;;15.75;11.95;;;;;;;11.70;100.00;101881.41;5247276;28;20028;-64
2022/10/31 01:41:53;;;;;;;17.10;11.48;;;;;;;11.74;100.00;101875.75;5249829;28;20052;-64
2022/10/31 01:44:26;;;;;;;16.60;11.52;;;;;;;11.67;100.00;101884.28;5249368;28;20441;-65
2022/10/31 01:47:17;;;;;;;18.65;11.80;;;;;;;11.57;100.00;101876.84;5248095;28;20032;-64
2022/10/31 01:49:53;;;;;;;19.38;12.43;;;;;;;11.52;100.00;101878.09;5239080;28;20059;-64
2022/10/31 01:52:29;;;;;;;17.48;12.57;;;;;;;11.50;100.00;101877.34;5238821;28;20036;-64
2022/10/31 01:55:09;;;;;;;16.88;11.65;;;;;;;11.46;100.00;101876.66;5239894;28;20128;-65
2022/10/31 01:57:45;;;;;;;15.63;11.57;;;;;;;11.43;100.00;101871.53;5236971;28;20029;-65
2022/10/31 02:00:18;;;;;;;15.43;11.90;;;;;;;11.42;100.00;101864.47;5241378;28;20120;-64
2022/10/31 02:02:50;;;;;;;18.40;12.70;;;;;;;11.38;100.00;101860.28;5237775;28;20040;-64
2022/10/31 02:05:27;;;;;;;22.13;13.40;;;;;;;11.32;100.00;101866.00;5241490;28;20055;-64
2022/10/31 02:08:12;;;;;;;18.08;13.23;;;;;;;11.43;100.00;101858.19;5240016;28;20525;-65
2022/10/31 02:10:44;;;;;;;17.25;12.38;;;;;;;11.39;100.00;101862.00;5240343;28;20119;-64
2022/10/31 02:13:17;;;;;;;20.90;13.02;;;;;;;11.26;100.00;101858.41;5244991;28;20502;-64
2022/10/31 02:15:53;;;;;;;21.42;12.57;;;;;;;11.26;100.00;101861.06;5238836;28;20139;-65
2022/10/31 02:18:28;;;;;;;21.23;13.23;;;;;;;11.22;100.00;101857.72;5236715;28;20017;-64
2022/10/31 02:21:23;;;;;;;20.20;13.45;;;;;;;11.21;100.00;101858.66;5234800;28;20040;-65
2022/10/31 02:24:28;;;;;;;21.48;12.95;;;;;;;11.15;100.00;101853.72;5239346;28;20033;-64
2022/10/31 02:27:18;;;;;;;;;;;;;;;11.25;100.00;101852.16;5238145;28;20047;-64
2022/10/31 02:30:03;;;;;;;16.15;11.90;;;;;;;11.06;100.00;101849.78;5244909;28;20034;-64
2022/10/31 02:32:54;;;;;;;14.80;11.93;;;;;;;10.99;100.00;101846.66;5245524;28;20112;-64
2022/10/31 02:35:51;;;;;;;16.30;11.68;;;;;;;10.99;100.00;101857.34;5239329;28;20509;-64
2022/10/31 02:38:47;;;;;;;16.85;11.13;;;;;;;10.98;100.00;101844.94;5236231;28;20429;-64
2022/10/31 02:41:40;;;;;;;18.88;13.05;;;;;;;10.98;100.00;101852.94;5245557;28;20672;-64
2022/10/31 02:44:42;;;;;;;19.33;14.20;;;;;;;10.93;100.00;101847.06;5245444;28;20063;-64
2022/10/31 02:47:25;;;;;;;19.33;13.15;;;;;;;10.86;100.00;101852.88;5247601;28;20134;-64
2022/10/31 02:50:06;;;;;;;20.23;12.95;;;;;;;10.83;100.00;101845.03;5249145;28;20406;-64
2022/10/31 02:52:37;;;;;;;19.42;13.40;;;;;;;10.76;100.00;101848.09;5248228;28;20048;-64
2022/10/31 02:55:33;;;;;;;18.98;13.98;;;;;;;10.74;100.00;101844.66;5244989;28;20043;-64
2022/10/31 02:58:06;;;;;;;17.52;13.48;;;;;;;10.71;100.00;101843.97;5248348;28;20040;-64
2022/10/31 03:00:45;;;;;;;21.92;14.77;;;;;;;10.72;100.00;101851.91;5238409;28;20041;-64
2022/10/31 03:03:30;;;;;;;17.75;13.40;;;;;;;10.68;100.00;101850.38;5236133;28;20040;-64
2022/10/31 03:06:10;;;;;;;20.92;15.35;;;;;;;10.68;100.00;101847.69;5235997;28;20070;-64
2022/10/31 03:08:52;;;;;;;20.98;14.13;;;;;;;10.76;100.00;101841.91;5238011;28;20035;-64
2022/10/31 03:11:31;;;;;;;20.95;13.90;;;;;;;10.68;100.00;101850.38;5237824;28;20057;-64
2022/10/31 03:14:10;;;;;;;18.65;13.93;;;;;;;10.67;100.00;101845.97;5240840;28;20425;-65
2022/10/31 03:16:48;;;;;;;22.60;15.07;;;;;;;10.65;100.00;101844.34;5236315;28;20063;-64
2022/10/31 03:19:24;;;;;;;20.42;13.82;;;;;;;10.66;100.00;101854.06;5235463;28;20055;-64
2022/10/31 03:22:00;;;;;;;18.67;13.70;;;;;;;10.66;100.00;101838.03;5235585;28;20044;-64
2022/10/31 03:24:37;;;;;;;19.30;13.65;;;;;;;10.67;100.00;101842.44;5237740;28;20115;-64
2022/10/31 03:27:13;;;;;;;18.15;12.65;;;;;;;10.64;100.00;101846.16;5239151;28;20027;-64
2022/10/31 03:29:47;;;;;;;16.80;12.52;;;;;;;10.64;100.00;101847.97;5238675;28;20036;-64
2022/10/31 03:32:25;;;;;;;20.95;12.40;;;;;;;10.65;100.00;101844.34;5242642;28;20043;-64
2022/10/31 03:35:00;;;;;;;17.10;12.18;;;;;;;10.64;100.00;101850.63;5236648;28;20043;-64
2022/10/31 03:37:33;;;;;;;15.90;12.00;;;;;;;10.57;100.00;101852.81;5244619;28;20178;-65
2022/10/31 03:40:08;;;;;;;17.17;11.80;;;;;;;10.59;100.00;101848.25;5244744;28;20849;-64
2022/10/31 03:42:41;;;;;;;;;;;;;;;10.68;100.00;101853.03;5239383;28;20043;-64
2022/10/31 03:45:19;;;;;;;15.88;11.35;;;;;;;10.58;100.00;101850.06;5242767;28;19917;-64
2022/10/31 03:47:53;;;;;;;17.45;11.48;;;;;;;10.59;100.00;101846.44;5238673;28;20021;-64
2022/10/31 03:50:32;;;;;;;13.75;10.60;;;;;;;10.53;100.00;101846.81;5240338;28;20056;-64
2022/10/31 03:53:09;;;;;;;18.83;11.57;;;;;;;10.42;100.00;101829.72;5240903;28;20028;-64
2022/10/31 03:55:57;;;;;;;17.25;11.80;;;;;;;10.48;100.00;101837.38;5244373;28;20025;-64
2022/10/31 03:58:37;;;;;;;16.65;11.52;;;;;;;10.46;100.00;101839.28;5240139;28;20016;-64
2022/10/31 04:01:15;;;;;;;18.42;12.20;;;;;;;10.39;100.00;101844.09;5236791;28;20029;-64
2022/10/31 04:03:48;;;;;;;16.27;11.35;;;;;;;10.45;100.00;101837.53;5241501;28;20025;-64
2022/10/31 04:06:21;;;;;;;20.42;12.90;;;;;;;10.34;100.00;101836.38;5246033;28;20025;-64
2022/10/31 04:09:01;;;;;;;19.25;11.60;;;;;;;10.41;100.00;101831.53;5243558;28;20032;-63
2022/10/31 04:11:40;;;;;;;18.45;12.30;;;;;;;10.34;100.00;101847.06;5244561;28;20036;-64
2022/10/31 04:14:12;;;;;;;22.40;13.43;;;;;;;10.33;100.00;101847.97;5245614;28;20029;-64
2022/10/31 04:16:44;;;;;;;19.85;13.15;;;;;;;10.34;100.00;101847.06;5239104;28;20029;-63
2022/10/31 04:19:15;;;;;;;16.50;11.95;;;;;;;10.29;100.00;101850.91;5247928;28;20033;-64
2022/10/31 04:21:47;;;;;;;18.02;11.70;;;;;;;10.42;100.00;101849.25;5241265;28;20091;-64
2022/10/31 04:24:18;;;;;;;16.15;11.82;;;;;;;10.34;100.00;101847.06;5240619;28;20032;-64
2022/10/31 04:26:49;;;;;;;23.73;12.93;;;;;;;10.35;100.00;101840.75;5245344;28;20044;-63
2022/10/31 04:29:20;;;;;;;19.38;13.57;;;;;;;10.38;100.00;101848.59;5245253;28;20060;-64
2022/10/31 04:31:52;;;;;;;19.75;13.68;;;;;;;10.43;100.00;101847.44;5250049;28;20101;-63
2022/10/31 04:34:23;;;;;;;20.70;13.05;;;;;;;10.46;100.00;101848.13;5244163;28;20037;-64
2022/10/31 04:36:54;;;;;;;21.58;14.13;;;;;;;10.46;100.00;101856.13;5250045;28;20033;-64
2022/10/31 04:39:25;;;;;;;19.30;13.85;;;;;;;10.48;100.00;101856.03;5249092;28;20021;-63
2022/10/31 04:41:57;;;;;;;19.13;13.52;;;;;;;10.45;100.00;101854.44;5249443;28;20099;-64
2022/10/31 04:44:28;;;;;;;22.08;13.93;;;;;;;10.54;100.00;101847.66;5246883;28;20124;-64
2022/10/31 04:46:59;;;;;;;21.13;15.15;;;;;;;10.56;100.00;101845.75;5245825;28;20044;-64
2022/10/31 04:49:30;;;;;;;20.85;14.13;;;;;;;10.47;100.00;101847.19;5249121;28;20036;-64
2022/10/31 04:52:02;;;;;;;27.42;15.70;;;;;;;10.50;100.00;101844.31;5251598;28;20091;-64
2022/10/31 04:54:33;;;;;;;20.67;14.02;;;;;;;10.57;100.00;101850.16;5249506;28;20106;-64
2022/10/31 04:57:04;;;;;;;19.80;14.02;;;;;;;10.49;100.00;101853.28;5247679;28;20253;-64
2022/10/31 04:59:36;;;;;;;19.65;14.40;;;;;;;10.48;100.00;101848.03;5246736;28;20055;-64
2022/10/31 05:02:07;;;;;;;23.25;14.73;;;;;;;10.57;100.00;101842.16;5246828;28;20041;-64
2022/10/31 05:04:38;;;;;;;22.35;14.95;;;;;;;10.37;100.00;101836.22;5241745;28;20041;-64
2022/10/31 05:07:09;;;;;;;21.48;15.70;;;;;;;10.34;100.00;101847.06;5240164;28;20036;-64
2022/10/31 05:09:41;;;;;;;23.02;14.40;;;;;;;10.34;100.00;101836.38;5241490;28;20155;-64
2022/10/31 05:12:12;;;;;;;21.45;14.60;;;;;;;10.30;100.00;101836.63;5244101;28;20036;-64
2022/10/31 05:14:43;;;;;;;26.95;15.63;;;;;;;10.25;100.00;101833.38;5244743;28;20390;-64
2022/10/31 05:17:14;;;;;;;21.25;14.68;;;;;;;10.29;100.00;101835.75;5241729;28;20549;-64
2022/10/31 05:19:46;;;;;;;23.27;15.15;;;;;;;10.27;100.00;101840.31;5238146;28;20044;-64
2022/10/31 05:22:17;;;;;;;21.30;15.80;;;;;;;10.23;100.00;101833.47;5237905;28;20086;-64
2022/10/31 05:24:48;;;;;;;23.10;15.20;;;;;;;10.27;100.00;101842.13;5240921;28;20037;-64
2022/10/31 05:27:20;;;;;;;22.25;14.75;;;;;;;10.25;100.00;101839.56;5238896;28;20040;-64
2022/10/31 05:29:52;;;;;;;24.13;15.95;;;;;;;10.28;100.00;101831.38;5243549;28;20025;-64
2022/10/31 05:32:23;;;;;;;20.63;14.77;;;;;;;10.31;100.00;101825.88;5246296;28;20663;-65
2022/10/31 05:34:54;;;;;;;22.73;15.82;;;;;;;10.26;100.00;101822.63;5250347;28;20495;-64
2022/10/31 05:37:25;;;;;;;23.52;15.63;;;;;;;10.26;100.00;101822.63;5246187;28;20578;-64
2022/10/31 05:39:57;;;;;;;24.20;15.80;;;;;;;10.24;100.00;101812.97;5237633;28;20071;-64
2022/10/31 05:42:28;;;;;;;26.58;16.15;;;;;;;10.24;100.00;101816.53;5240736;28;20040;-64
2022/10/31 05:44:59;;;;;;;26.33;16.17;;;;;;;10.28;100.00;101818.03;5239081;28;20037;-64
2022/10/31 05:47:30;;;;;;;24.85;16.60;;;;;;;10.39;100.00;101818.31;5235722;28;20111;-64
2022/10/31 05:50:03;;;;;;;25.88;16.13;;;;;;;10.40;100.00;101816.47;5239856;28;20056;-64
2022/10/31 05:52:35;;;;;;;24.17;15.98;;;;;;;10.33;100.00;101815.97;5235702;28;20052;-64
2022/10/31 05:55:06;;;;;;;24.77;16.42;;;;;;;10.31;100.00;101809.88;5242619;28;20456;-64
2022/10/31 05:57:38;;;;;;;28.40;16.88;;;;;;;10.24;100.00;101805.84;5236062;28;20024;-64
2022/10/31 06:00:09;;;;;;;23.92;16.08;;;;;;;10.33;100.00;101802.63;5236465;28;20063;-64
2022/10/31 06:02:41;;;;;;;27.00;16.63;;;;;;;10.21;100.00;101806.03;5239859;28;20095;-64
2022/10/31 06:05:12;;;;;;;24.38;16.15;;;;;;;10.18;100.00;101801.75;5231433;28;20067;-64
2022/10/31 06:07:43;;;;;;;25.67;16.60;;;;;;;10.16;100.00;101802.75;5244923;28;20032;-65
2022/10/31 06:10:15;;;;;;;22.23;16.27;;;;;;;10.15;100.00;101798.38;5241482;28;20044;-63
2022/10/31 06:12:47;;;;;;;22.48;15.90;;;;;;;10.15;100.00;101793.91;5242589;28;20090;-64
2022/10/31 06:15:19;;;;;;;25.55;16.27;;;;;;;10.18;100.00;101792.84;5237460;28;20576;-65
2022/10/31 06:18:05;;;;;;;22.63;15.77;;;;;;;10.20;100.00;101796.28;5241934;28;20029;-64
2022/10/31 06:20:36;;;;;;;24.38;16.30;;;;;;;10.23;100.00;101796.13;5241462;28;20167;-64
2022/10/31 06:23:07;;;;;;;23.60;15.82;;;;;;;10.15;100.00;101790.38;5240177;28;20036;-64
2022/10/31 06:25:38;;;;;;;26.45;18.27;;;;;;;10.17;100.00;101791.16;5242899;28;20037;-64
2022/10/31 06:28:10;;;;;;;24.92;17.85;;;;;;;10.13;100.00;101800.28;5245600;28;20041;-64
2022/10/31 06:30:41;;;;;;;26.05;17.73;;;;;;;10.14;100.00;101802.88;5243414;28;20082;-64
2022/10/31 06:33:12;;;;;;;27.88;19.13;;;;;;;10.13;100.00;101800.28;5243968;28;20927;-64
2022/10/31 06:35:47;;;;;;;28.50;19.10;;;;;;;10.16;100.00;101805.44;5239474;28;20094;-64
2022/10/31 06:38:18;;;;;;;31.60;20.92;;;;;;;10.14;100.00;101810.00;5245436;28;20025;-64
2022/10/31 06:40:49;;;;;;;34.10;19.90;;;;;;;10.16;100.00;101808.97;5244592;28;20403;-64
2022/10/31 06:43:21;;;;;;;30.42;20.38;;;;;;;10.14;100.00;101810.00;5243506;28;20584;-64
2022/10/31 06:45:53;;;;;;;28.52;18.38;;;;;;;10.21;100.00;101811.34;5248014;28;20070;-64
2022/10/31 06:48:24;;;;;;;32.20;19.00;;;;;;;10.18;100.00;101803.53;5241500;28;20581;-64
2022/10/31 06:50:59;;;;;;;29.25;19.60;;;;;;;10.18;100.00;101808.84;5247233;28;20081;-64
2022/10/31 06:53:30;;;;;;;31.58;19.75;;;;;;;10.17;100.00;101799.16;5243829;28;20032;-64
2022/10/31 06:56:02;;;;;;;28.83;19.48;;;;;;;10.20;100.00;101804.28;5247465;28;20082;-64
2022/10/31 06:58:33;;;;;;;32.38;19.90;;;;;;;10.15;100.00;101804.56;5248401;28;20035;-64
2022/10/31 07:01:04;;;;;;;32.42;19.73;;;;;;;10.23;100.00;101800.59;5241669;28;20033;-64
2022/10/31 07:03:36;;;;;;;28.63;18.73;;;;;;;10.30;100.00;101797.50;5251959;28;20098;-64
2022/10/31 07:06:07;;;;;;;28.15;19.38;;;;;;;10.33;100.00;101801.78;5248780;28;20128;-64
2022/10/31 07:08:38;;;;;;;30.77;19.92;;;;;;;10.29;100.00;101803.75;5251784;28;20028;-64
2022/10/31 07:11:09;;;;;;;31.60;20.27;;;;;;;10.29;100.00;101801.06;5250410;28;20029;-64
2022/10/31 07:13:41;;;;;;;28.90;19.13;;;;;;;10.30;100.00;101797.50;5248320;28;20036;-64
2022/10/31 07:16:13;;;;;;;31.88;20.50;;;;;;;10.35;100.00;101806.06;5245775;28;20038;-64
2022/10/31 07:18:44;;;;;;;31.08;20.88;;;;;;;10.38;100.00;101802.38;5243198;28;20033;-64
2022/10/31 07:21:16;;;;;;;31.88;21.02;;;;;;;10.41;100.00;101804.84;5251687;28;20425;-64
2022/10/31 07:23:48;;;;;;;28.92;20.30;;;;;;;10.53;100.00;101803.28;5249845;28;20147;-64
2022/10/31 07:26:19;;;;;;;31.58;21.77;;;;;;;10.51;100.00;101802.50;5251352;28;20074;-65
2022/10/31 07:28:51;;;;;;;30.48;21.80;;;;;;;10.54;100.00;101803.16;5251383;28;20025;-64
2022/10/31 07:31:22;;;;;;;29.50;20.77;;;;;;;10.61;100.00;101814.31;5243483;28;20559;-64
2022/10/31 07:33:53;;;;;;;36.83;21.48;;;;;;;10.70;100.00;101819.09;5249179;28;20041;-64
2022/10/31 07:36:24;;;;;;;32.70;21.48;;;;;;;10.71;100.00;101819.94;5248063;28;20090;-64
2022/10/31 07:38:58;;;;;;;32.25;21.65;;;;;;;10.81;100.00;101822.91;5248529;28;20029;-64
2022/10/31 07:41:29;;;;;;;31.17;21.38;;;;;;;10.86;100.00;101818.16;5248616;28;20044;-64
2022/10/31 07:44:00;;;;;;;30.70;20.60;;;;;;;11.04;100.00;101816.97;5251930;28;20590;-64
2022/10/31 07:46:32;;;;;;;34.00;21.10;;;;;;;10.86;100.00;101810.16;5243854;28;20052;-64
2022/10/31 07:49:03;;;;;;;33.78;22.10;;;;;;;10.99;100.00;101819.09;5247734;28;20025;-64
2022/10/31 07:51:34;;;;;;;31.10;20.50;;;;;;;11.08;100.00;101810.50;5244542;28;20410;-65
2022/10/31 07:54:05;;;;;;;29.17;21.77;;;;;;;11.05;100.00;101821.38;5240756;28;20048;-64
2022/10/31 07:56:37;;;;;;;35.38;22.60;;;;;;;11.09;100.00;101820.22;5237544;28;20032;-64
2022/10/31 07:59:08;;;;;;;34.17;21.60;;;;;;;11.02;100.00;101818.03;5244208;28;21219;-64
2022/10/31 08:01:39;;;;;;;34.50;22.45;;;;;;;11.12;100.00;101812.03;5249968;28;20823;-64
2022/10/31 08:04:10;;;;;;;33.45;22.38;;;;;;;11.04;100.00;101821.47;5239159;28;20068;-64
2022/10/31 08:06:42;;;;;;;37.78;24.27;;;;;;;11.15;100.00;101821.66;5245397;28;20025;-64
2022/10/31 08:09:13;;;;;;;36.50;24.75;;;;;;;11.17;100.00;101823.28;5246628;28;20033;-64
2022/10/31 08:11:44;;;;;;;37.63;25.08;;;;;;;11.16;100.00;101823.34;5253819;28;20515;-64
2022/10/31 08:14:16;;;;;;;38.47;26.55;;;;;;;11.23;100.00;101824.69;5249167;28;20048;-64
2022/10/31 08:16:47;;;;;;;40.70;26.98;;;;;;;11.32;100.00;101833.94;5251530;28;20402;-64
2022/10/31 08:19:18;;;;;;;38.67;27.02;;;;;;;11.37;100.00;101824.69;5246157;28;20439;-64
2022/10/31 08:21:54;;;;;;;44.60;30.70;;;;;;;11.44;100.00;101809.09;5252214;28;20414;-64
2022/10/31 08:24:26;;;;;;;48.15;31.02;;;;;;;11.63;100.00;101805.25;5243831;28;20121;-64
2022/10/31 08:26:57;;;;;;;46.35;31.15;;;;;;;11.65;100.00;101812.19;5244569;28;20028;-64
2022/10/31 08:29:28;;;;;;;47.00;31.50;;;;;;;11.77;100.00;101823.88;5254093;28;20372;-64
2022/10/31 08:31:59;;;;;;;49.47;31.92;;;;;;;11.86;100.00;101823.28;5253109;28;20033;-65
2022/10/31 08:34:31;;;;;;;58.60;36.28;;;;;;;11.92;100.00;101814.88;5245350;28;20056;-64
2022/10/31 08:37:02;;;;;;;55.63;35.70;;;;;;;12.10;100.00;101803.91;5258902;28;20128;-64
2022/10/31 08:39:33;;;;;;;54.95;36.60;;;;;;;12.12;100.00;101802.84;5255900;28;20024;-64
2022/10/31 08:42:04;;;;;;;57.88;36.65;;;;;;;12.19;100.00;101776.53;5256449;28;20025;-64
2022/10/31 08:44:36;;;;;;;52.78;34.95;;;;;;;12.27;100.00;101754.59;5247467;28;20064;-64
2022/10/31 08:47:07;;;;;;;48.97;33.67;;;;;;;12.27;100.00;101755.47;5253289;28;20029;-64
2022/10/31 08:49:38;;;;;;;55.13;35.30;;;;;;;12.30;100.00;101768.63;5249058;28;20089;-64
2022/10/31 08:52:09;;;;;;;52.55;33.85;;;;;;;12.40;100.00;101749.25;5251741;28;20380;-64
2022/10/31 08:54:41;;;;;;;48.72;33.00;;;;;;;12.46;100.00;101763.06;5250324;28;20040;-65
2022/10/31 08:57:12;;;;;;;46.90;32.08;;;;;;;12.43;100.00;101784.69;5252282;28;20036;-64
2022/10/31 08:59:43;;;;;;;52.38;34.35;;;;;;;12.53;100.00;101788.44;5252141;28;20033;-64
2022/10/31 09:02:14;;;;;;;51.15;34.58;;;;;;;12.48;100.00;101784.38;5251640;28;20029;-64
2022/10/31 09:04:46;;;;;;;53.88;33.10;;;;;;;12.56;100.00;101776.69;5249624;28;20446;-64
2022/10/31 09:07:17;;;;;;;48.95;33.25;;;;;;;12.69;100.00;101780.19;5247897;28;20689;-65
2022/10/31 09:09:48;;;;;;;56.67;34.70;;;;;;;12.66;100.00;101771.53;5249292;28;20020;-64
2022/10/31 09:12:20;;;;;;;50.47;33.60;;;;;;;12.84;100.00;101772.88;5251770;28;20477;-64
2022/10/31 09:14:51;;;;;;;53.25;33.15;;;;;;;12.74;100.00;101785.22;5253530;28;20048;-64
2022/10/31 09:17:22;;;;;;;53.53;32.88;;;;;;;12.82;100.00;101792.72;5250392;28;20074;-64
2022/10/31 09:19:53;;;;;;;50.08;31.67;;;;;;;12.98;100.00;101787.13;5255248;28;20039;-64
2022/10/31 09:22:25;;;;;;;51.72;32.63;;;;;;;13.09;100.00;101763.09;5251052;28;20025;-64
2022/10/31 09:24:56;;;;;;;51.88;33.15;;;;;;;12.98;100.00;101763.84;5251839;28;20530;-64
2022/10/31 09:27:27;;;;;;;52.30;33.33;;;;;;;13.06;100.00;101744.56;5251503;28;20494;-64
2022/10/31 09:29:58;;;;;;;56.13;33.70;;;;;;;13.11;100.00;101748.59;5249173;28;20092;-64
2022/10/31 09:32:30;;;;;;;47.85;32.08;;;;;;;13.27;100.00;101734.97;5251944;28;20041;-64
2022/10/31 09:35:01;;;;;;;46.63;31.45;;;;;;;13.36;100.00;101730.75;5248505;28;20201;-64
2022/10/31 09:37:32;;;;;;;49.17;32.78;;;;;;;13.30;100.00;101723.19;5250039;28;20940;-64
2022/10/31 09:40:04;;;;;;;47.05;31.63;;;;;;;13.40;100.00;101704.59;5251193;28;20106;-64
2022/10/31 09:42:53;;;;;;;48.50;31.75;;;;;;;13.43;100.00;101715.09;5251346;28;20036;-64
2022/10/31 09:45:56;;;;;;;44.35;30.40;;;;;;;13.44;100.00;101728.38;5252390;28;20036;-64
2022/10/31 09:48:49;;;;;;;47.75;31.55;;;;;;;13.40;100.00;101732.25;5250374;28;20032;-64
2022/10/31 09:51:28;;;;;;;47.67;30.75;;;;;;;13.50;100.00;101730.59;5244384;28;20053;-65
2022/10/31 09:54:05;;;;;;;48.22;31.08;;;;;;;13.44;100.00;101725.72;5244450;28;20039;-64
2022/10/31 09:56:37;;;;;;;49.40;31.48;;;;;;;13.57;100.00;101711.38;5243193;28;20070;-64
2022/10/31 09:59:21;;;;;;;49.47;32.45;;;;;;;13.53;100.00;101722.31;5231539;28;20024;-64
2022/10/31 10:02:00;;;;;;;49.45;31.88;;;;;;;13.55;100.00;101719.53;5203108;28;20052;-64
2022/10/31 10:04:44;;;;;;;50.85;33.15;;;;;;;13.61;100.00;101718.22;5251121;28;20563;-64
2022/10/31 10:07:34;;;;;;;46.00;30.20;;;;;;;13.69;100.00;101688.97;5253448;28;20060;-64
2022/10/31 10:10:15;;;;;;;50.08;33.10;;;;;;;13.72;100.00;101686.91;5248753;28;20036;-64
2022/10/31 10:13:31;;;;;;;52.58;33.90;;;;;;;13.81;100.00;101690.75;5246702;28;20678;-64
2022/10/31 10:16:21;;;;;;;57.05;33.67;;;;;;;13.90;100.00;101690.03;5244764;28;20087;-65
2022/10/31 10:19:17;;;;;;;50.08;32.40;;;;;;;13.92;100.00;101687.22;5242368;28;20496;-64
2022/10/31 10:21:57;;;;;;;49.35;30.85;;;;;;;14.01;100.00;101677.59;5244879;28;20588;-65
2022/10/31 10:25:06;;;;;;;51.55;30.88;;;;;;;14.03;100.00;101670.28;5247995;28;20029;-64
2022/10/31 10:27:56;;;;;;;46.15;30.08;;;;;;;14.10;100.00;101660.78;5247035;28;20056;-64
2022/10/31 10:30:41;;;;;;;52.47;32.45;;;;;;;14.14;100.00;101650.69;5245610;28;20532;-64
2022/10/31 10:33:19;;;;;;;;;;;;;;;14.18;100.00;101654.81;5250541;28;20078;-64
2022/10/31 10:35:55;;;;;;;51.50;32.17;;;;;;;14.34;100.00;101663.34;5238456;28;19920;-64
2022/10/31 10:38:38;;;;;;;49.78;33.33;;;;;;;14.31;100.00;101674.34;5246435;28;20673;-65
2022/10/31 10:41:15;;;;;;;52.92;32.58;;;;;;;14.42;100.00;101674.34;5243394;28;20045;-65
2022/10/31 10:43:50;;;;;;;54.67;32.50;;;;;;;14.53;100.00;101676.16;5244969;28;20028;-65
2022/10/31 10:49:46;;;;;;;51.30;32.63;;;;;;;14.64;100.00;101670.81;5249722;28;20045;-65
2022/10/31 10:52:28;;;;;;;51.60;32.33;;;;;;;14.58;100.00;101665.94;5247366;28;20086;-65
2022/10/31 10:55:16;;;;;;;50.08;32.45;;;;;;;14.67;100.00;101649.09;5251279;28;20135;-65
2022/10/31 10:57:56;;;;;;;47.30;31.73;;;;;;;14.75;100.00;101653.00;5249644;28;20103;-65
2022/10/31 11:00:42;;;;;;;52.60;31.90;;;;;;;14.84;100.00;101649.53;5248570;28;20037;-65
2022/10/31 11:03:15;;;;;;;50.80;30.83;;;;;;;14.86;100.00;101647.56;5250003;28;20166;-65
2022/10/31 11:05:51;;;;;;;50.85;31.25;;;;;;;14.88;100.00;101656.38;5249528;28;20051;-65
2022/10/31 11:08:34;;;;;;;50.63;31.35;;;;;;;14.97;100.00;101650.25;5251543;28;20214;-65
2022/10/31 11:11:17;;;;;;;50.67;32.10;;;;;;;15.03;100.00;101649.75;5247100;28;20090;-65
2022/10/31 11:13:52;;;;;;;53.05;31.55;;;;;;;15.09;100.00;101643.88;5243294;28;20052;-65
2022/10/31 11:16:28;;;;;;;48.47;30.83;;;;;;;15.05;100.00;101642.41;5239225;28;20441;-65
2022/10/31 11:19:11;;;;;;;53.22;33.28;;;;;;;15.15;100.00;101629.06;5249136;28;20029;-65
2022/10/31 11:21:45;;;;;;;49.92;30.55;;;;;;;15.27;100.00;101619.97;5247113;28;20429;-65
2022/10/31 11:24:21;;;;;;;44.60;28.80;;;;;;;15.28;100.00;101607.38;5254400;28;20161;-65
2022/10/31 11:27:13;;;;;;;44.38;28.52;;;;;;;15.37;100.00;101595.84;5252925;28;20468;-66
2022/10/31 11:29:44;;;;;;;47.67;29.58;;;;;;;15.45;100.00;101600.56;5246850;28;20031;-65
2022/10/31 11:32:26;;;;;;;44.30;27.42;;;;;;;15.51;100.00;101591.13;5246338;28;20404;-65
2022/10/31 11:35:00;;;;;;;43.30;28.25;;;;;;;15.52;100.00;101582.94;5250008;28;20029;-65
2022/10/31 11:37:35;;;;;;;47.40;29.02;;;;;;;15.52;100.00;101568.63;5246634;28;20107;-66
2022/10/31 11:40:15;;;;;;;41.95;26.65;;;;;;;15.60;100.00;101568.81;5250310;28;20387;-65